CCAYT SCEL-SCTE
Flight info
| Callsign | CCAYT |
|---|---|
| Flight time | 1h 31m |
| Altitude | 41000 |
| Route | N0434F410 ANGO6C ANGOD UQ803 ERUKA UT121 SARTO SART2A |
| Aircraft | C25C/M-SDE2E3FGHRWXY/LB1 |
Departure
| Time | 2026-04-25 20:08 |
|---|---|
| Airport | Comodoro Arturo Merino Benítez International Airport (SCEL) |
Arrival
| Time | 2026-04-25 21:40 |
|---|---|
| Airport | El Tepual International Airport (SCTE) |
| Time | Latitude | Longitude | Altitude | Speed | Heading |
|---|---|---|---|---|---|
| 2026-04-25 19:57 | -33.39223 | -70.79204 | 1558 ft | 0 kts | 360° |
| 2026-04-25 20:03 | -33.39215 | -70.79202 | 1573 ft | 2 kts | 24° |
| 2026-04-25 20:04 | -33.39208 | -70.79160 | 1573 ft | 7 kts | 81° |
| 2026-04-25 20:04 | -33.39163 | -70.79148 | 1561 ft | 9 kts | 355° |
| 2026-04-25 20:04 | -33.39091 | -70.79153 | 1558 ft | 12 kts | 356° |
| 2026-04-25 20:04 | -33.39023 | -70.79109 | 1558 ft | 16 kts | 89° |
| 2026-04-25 20:05 | -33.39018 | -70.78965 | 1558 ft | 18 kts | 86° |
| 2026-04-25 20:05 | -33.38917 | -70.78923 | 1558 ft | 22 kts | 358° |
| 2026-04-25 20:05 | -33.38733 | -70.78931 | 1558 ft | 27 kts | 358° |
| 2026-04-25 20:05 | -33.38636 | -70.78900 | 1558 ft | 12 kts | 88° |
| 2026-04-25 20:06 | -33.38582 | -70.78833 | 1558 ft | 16 kts | 356° |
| 2026-04-25 20:06 | -33.38473 | -70.78813 | 1558 ft | 16 kts | 74° |
| 2026-04-25 20:06 | -33.38532 | -70.78742 | 1558 ft | 11 kts | 148° |
| 2026-04-25 20:06 | -33.38595 | -70.78693 | 1558 ft | 11 kts | 148° |
| 2026-04-25 20:07 | -33.38680 | -70.78618 | 1558 ft | 14 kts | 150° |
| 2026-04-25 20:07 | -33.38701 | -70.78612 | 1557 ft | 0 kts | 178° |
| 2026-04-25 20:08 | -33.38915 | -70.78600 | 1559 ft | 80 kts | 177° |
| 2026-04-25 20:08 | -33.39800 | -70.78552 | 1734 ft | 160 kts | 177° |
| 2026-04-25 20:08 | -33.41060 | -70.78476 | 2478 ft | 197 kts | 176° |
| 2026-04-25 20:08 | -33.42529 | -70.78378 | 3448 ft | 224 kts | 177° |
| 2026-04-25 20:09 | -33.44157 | -70.78279 | 4427 ft | 244 kts | 177° |
| 2026-04-25 20:09 | -33.45929 | -70.78175 | 5453 ft | 261 kts | 177° |
| 2026-04-25 20:09 | -33.47740 | -70.78067 | 6655 ft | 266 kts | 178° |
| 2026-04-25 20:09 | -33.49606 | -70.77957 | 7806 ft | 270 kts | 178° |
| 2026-04-25 20:10 | -33.51499 | -70.77842 | 8993 ft | 275 kts | 178° |
| 2026-04-25 20:10 | -33.53440 | -70.77748 | 10046 ft | 282 kts | 181° |
| 2026-04-25 20:10 | -33.55376 | -70.78178 | 11063 ft | 285 kts | 196° |
| 2026-04-25 20:10 | -33.57320 | -70.78738 | 12130 ft | 288 kts | 194° |
| 2026-04-25 20:11 | -33.59335 | -70.79327 | 12687 ft | 311 kts | 197° |
| 2026-04-25 20:11 | -33.61514 | -70.80058 | 13017 ft | 336 kts | 195° |
| 2026-04-25 20:11 | -33.63805 | -70.80698 | 13959 ft | 338 kts | 195° |
| 2026-04-25 20:11 | -33.66069 | -70.81382 | 14802 ft | 340 kts | 197° |
| 2026-04-25 20:12 | -33.68366 | -70.82113 | 15693 ft | 340 kts | 197° |
| 2026-04-25 20:12 | -33.70639 | -70.82834 | 16538 ft | 342 kts | 197° |
| 2026-04-25 20:12 | -33.72959 | -70.83550 | 17381 ft | 344 kts | 197° |
| 2026-04-25 20:12 | -33.74495 | -70.84026 | 17936 ft | 345 kts | 197° |
| 2026-04-25 20:13 | -33.77617 | -70.84996 | 18975 ft | 347 kts | 198° |
| 2026-04-25 20:13 | -33.79939 | -70.85722 | 19677 ft | 349 kts | 198° |
| 2026-04-25 20:13 | -33.82305 | -70.86462 | 20397 ft | 352 kts | 198° |
| 2026-04-25 20:13 | -33.84696 | -70.87207 | 21055 ft | 355 kts | 198° |
| 2026-04-25 20:14 | -33.87099 | -70.87954 | 21840 ft | 357 kts | 199° |
| 2026-04-25 20:14 | -33.89485 | -70.88703 | 22540 ft | 360 kts | 199° |
| 2026-04-25 20:14 | -33.91922 | -70.89464 | 23249 ft | 362 kts | 199° |
| 2026-04-25 20:14 | -33.94379 | -70.90233 | 23859 ft | 366 kts | 199° |
| 2026-04-25 20:15 | -33.96859 | -70.91007 | 24419 ft | 368 kts | 199° |
| 2026-04-25 20:15 | -33.99346 | -70.91789 | 24919 ft | 370 kts | 199° |
| 2026-04-25 20:15 | -34.01753 | -70.92767 | 25414 ft | 367 kts | 210° |
| 2026-04-25 20:15 | -34.03958 | -70.94334 | 25927 ft | 367 kts | 215° |
| 2026-04-25 20:16 | -34.06139 | -70.95957 | 26375 ft | 369 kts | 216° |
| 2026-04-25 20:16 | -34.08312 | -70.97617 | 26795 ft | 371 kts | 216° |
| 2026-04-25 20:16 | -34.10507 | -70.99288 | 27214 ft | 375 kts | 216° |
| 2026-04-25 20:16 | -34.12692 | -71.00930 | 27683 ft | 375 kts | 216° |
| 2026-04-25 20:17 | -34.14924 | -71.02606 | 28083 ft | 377 kts | 216° |
| 2026-04-25 20:17 | -34.17153 | -71.04295 | 28540 ft | 375 kts | 217° |
| 2026-04-25 20:17 | -34.19358 | -71.05963 | 29049 ft | 373 kts | 217° |
| 2026-04-25 20:17 | -34.21530 | -71.07614 | 29555 ft | 372 kts | 217° |
| 2026-04-25 20:18 | -34.23720 | -71.09270 | 30080 ft | 370 kts | 217° |
| 2026-04-25 20:18 | -34.25917 | -71.10932 | 30566 ft | 369 kts | 217° |
| 2026-04-25 20:18 | -34.28062 | -71.12558 | 31053 ft | 366 kts | 218° |
| 2026-04-25 20:18 | -34.30220 | -71.14196 | 31492 ft | 365 kts | 218° |
| 2026-04-25 20:19 | -34.32368 | -71.15831 | 31898 ft | 364 kts | 218° |
| 2026-04-25 20:19 | -34.34511 | -71.17458 | 32278 ft | 363 kts | 218° |
| 2026-04-25 20:19 | -34.36654 | -71.19088 | 32706 ft | 362 kts | 218° |
| 2026-04-25 20:19 | -34.38758 | -71.20685 | 33094 ft | 360 kts | 219° |
| 2026-04-25 20:20 | -34.40876 | -71.22300 | 33482 ft | 359 kts | 219° |
| 2026-04-25 20:20 | -34.42289 | -71.23375 | 33732 ft | 359 kts | 219° |
| 2026-04-25 20:20 | -34.45120 | -71.25534 | 34236 ft | 357 kts | 219° |
| 2026-04-25 20:20 | -34.47221 | -71.27134 | 34565 ft | 357 kts | 219° |
| 2026-04-25 20:21 | -34.49298 | -71.28721 | 34868 ft | 356 kts | 219° |
| 2026-04-25 20:21 | -34.51354 | -71.30397 | 35159 ft | 353 kts | 223° |
| 2026-04-25 20:21 | -34.53414 | -71.32057 | 35467 ft | 357 kts | 218° |
| 2026-04-25 20:21 | -34.55592 | -71.33470 | 35751 ft | 361 kts | 213° |
| 2026-04-25 20:22 | -34.57919 | -71.34658 | 36053 ft | 365 kts | 209° |
| 2026-04-25 20:22 | -34.58738 | -71.35003 | 36158 ft | 367 kts | 207° |
| 2026-04-25 20:22 | -34.62888 | -71.36255 | 36624 ft | 375 kts | 200° |
| 2026-04-25 20:22 | -34.65465 | -71.36848 | 36905 ft | 374 kts | 201° |
| 2026-04-25 20:23 | -34.68028 | -71.37438 | 37188 ft | 374 kts | 201° |
| 2026-04-25 20:23 | -34.70560 | -71.38009 | 37464 ft | 374 kts | 201° |
| 2026-04-25 20:23 | -34.73116 | -71.38582 | 37752 ft | 373 kts | 201° |
| 2026-04-25 20:23 | -34.75678 | -71.39161 | 38047 ft | 373 kts | 201° |
| 2026-04-25 20:24 | -34.78236 | -71.39742 | 38343 ft | 372 kts | 201° |
| 2026-04-25 20:24 | -34.80754 | -71.40314 | 38611 ft | 372 kts | 201° |
| 2026-04-25 20:24 | -34.83297 | -71.40891 | 38909 ft | 372 kts | 202° |
| 2026-04-25 20:24 | -34.85839 | -71.41466 | 39151 ft | 371 kts | 202° |
| 2026-04-25 20:25 | -34.88390 | -71.42047 | 39379 ft | 371 kts | 202° |
| 2026-04-25 20:25 | -34.90943 | -71.42626 | 39629 ft | 371 kts | 201° |
| 2026-04-25 20:25 | -34.93454 | -71.43197 | 39882 ft | 371 kts | 202° |
| 2026-04-25 20:25 | -34.95996 | -71.43777 | 40132 ft | 370 kts | 201° |
| 2026-04-25 20:26 | -34.98538 | -71.44355 | 40382 ft | 370 kts | 202° |
| 2026-04-25 20:26 | -35.01083 | -71.44935 | 40606 ft | 371 kts | 201° |
| 2026-04-25 20:26 | -35.03590 | -71.45505 | 40852 ft | 370 kts | 201° |
| 2026-04-25 20:26 | -35.06136 | -71.46086 | 41073 ft | 370 kts | 201° |
| 2026-04-25 20:27 | -35.11243 | -71.47258 | 41179 ft | 378 kts | 201° |
| 2026-04-25 20:27 | -35.16405 | -71.48430 | 41215 ft | 377 kts | 201° |
| 2026-04-25 20:28 | -35.21544 | -71.49613 | 41218 ft | 378 kts | 201° |
| 2026-04-25 20:28 | -35.26736 | -71.50799 | 41223 ft | 379 kts | 201° |
| 2026-04-25 20:29 | -35.31910 | -71.51987 | 41225 ft | 380 kts | 201° |
| 2026-04-25 20:29 | -35.37129 | -71.53186 | 41227 ft | 380 kts | 201° |
| 2026-04-25 20:30 | -35.42329 | -71.54384 | 41230 ft | 380 kts | 201° |
| 2026-04-25 20:30 | -35.47500 | -71.55574 | 41229 ft | 380 kts | 201° |
| 2026-04-25 20:31 | -35.52718 | -71.56778 | 41231 ft | 380 kts | 201° |
| 2026-04-25 20:31 | -35.57891 | -71.57974 | 41226 ft | 380 kts | 201° |
| 2026-04-25 20:32 | -35.63104 | -71.59179 | 41231 ft | 380 kts | 201° |
| 2026-04-25 20:32 | -35.68316 | -71.60386 | 41228 ft | 381 kts | 201° |
| 2026-04-25 20:33 | -35.73503 | -71.61590 | 41230 ft | 381 kts | 201° |
| 2026-04-25 20:33 | -35.76956 | -71.62392 | 41230 ft | 380 kts | 201° |
| 2026-04-25 20:34 | -35.83907 | -71.64007 | 41234 ft | 380 kts | 201° |
| 2026-04-25 20:34 | -35.89080 | -71.65213 | 41238 ft | 380 kts | 201° |
| 2026-04-25 20:35 | -35.94283 | -71.66426 | 41233 ft | 380 kts | 201° |
| 2026-04-25 20:35 | -35.99491 | -71.67642 | 41237 ft | 380 kts | 201° |
| 2026-04-25 20:36 | -36.04701 | -71.68859 | 41237 ft | 380 kts | 201° |
| 2026-04-25 20:36 | -36.09880 | -71.70073 | 41239 ft | 380 kts | 201° |
| 2026-04-25 20:37 | -36.15088 | -71.71293 | 41239 ft | 380 kts | 201° |
| 2026-04-25 20:37 | -36.20269 | -71.72509 | 41240 ft | 380 kts | 201° |
| 2026-04-25 20:38 | -36.25451 | -71.73727 | 41243 ft | 380 kts | 201° |
| 2026-04-25 20:38 | -36.30656 | -71.74953 | 41243 ft | 380 kts | 200° |
| 2026-04-25 20:39 | -36.35845 | -71.76175 | 41241 ft | 379 kts | 201° |
| 2026-04-25 20:39 | -36.39315 | -71.76994 | 41245 ft | 379 kts | 200° |
| 2026-04-25 20:40 | -36.46192 | -71.78620 | 41246 ft | 379 kts | 200° |
| 2026-04-25 20:40 | -36.51397 | -71.79851 | 41248 ft | 379 kts | 200° |
| 2026-04-25 20:41 | -36.56567 | -71.81077 | 41248 ft | 379 kts | 200° |
| 2026-04-25 20:41 | -36.61733 | -71.82302 | 41251 ft | 379 kts | 200° |
| 2026-04-25 20:42 | -36.66923 | -71.83536 | 41249 ft | 379 kts | 200° |
| 2026-04-25 20:42 | -36.72107 | -71.84770 | 41247 ft | 379 kts | 200° |
| 2026-04-25 20:43 | -36.77252 | -71.85996 | 41256 ft | 379 kts | 200° |
| 2026-04-25 20:43 | -36.82422 | -71.87229 | 41254 ft | 378 kts | 200° |
| 2026-04-25 20:44 | -36.87602 | -71.88467 | 41261 ft | 378 kts | 200° |
| 2026-04-25 20:44 | -36.92773 | -71.89704 | 41269 ft | 378 kts | 200° |
| 2026-04-25 20:45 | -36.97938 | -71.90942 | 41270 ft | 378 kts | 200° |
| 2026-04-25 20:45 | -37.03097 | -71.92179 | 41272 ft | 378 kts | 200° |
| 2026-04-25 20:46 | -37.07395 | -71.93213 | 41275 ft | 378 kts | 200° |
| 2026-04-25 20:46 | -37.13418 | -71.94661 | 41281 ft | 378 kts | 200° |
| 2026-04-25 20:47 | -37.17736 | -71.95700 | 41284 ft | 378 kts | 200° |
| 2026-04-25 20:47 | -37.22904 | -71.96948 | 41285 ft | 378 kts | 200° |
| 2026-04-25 20:48 | -37.28086 | -71.98200 | 41290 ft | 378 kts | 200° |
| 2026-04-25 20:48 | -37.33211 | -71.99439 | 41294 ft | 377 kts | 199° |
| 2026-04-25 20:49 | -37.38374 | -72.00690 | 41294 ft | 377 kts | 200° |
| 2026-04-25 20:49 | -37.43507 | -72.01935 | 41293 ft | 377 kts | 200° |
| 2026-04-25 20:50 | -37.48665 | -72.03188 | 41297 ft | 376 kts | 199° |
| 2026-04-25 20:50 | -37.53799 | -72.04437 | 41293 ft | 376 kts | 200° |
| 2026-04-25 20:51 | -37.58928 | -72.05687 | 41297 ft | 376 kts | 199° |
| 2026-04-25 20:51 | -37.64072 | -72.06941 | 41300 ft | 376 kts | 199° |
| 2026-04-25 20:52 | -37.68341 | -72.07983 | 41297 ft | 376 kts | 199° |
| 2026-04-25 20:52 | -37.74324 | -72.09447 | 41305 ft | 375 kts | 199° |
| 2026-04-25 20:53 | -37.79428 | -72.10698 | 41305 ft | 375 kts | 199° |
| 2026-04-25 20:53 | -37.84563 | -72.11957 | 41303 ft | 375 kts | 199° |
| 2026-04-25 20:54 | -37.89704 | -72.13220 | 41304 ft | 375 kts | 199° |
| 2026-04-25 20:54 | -37.94795 | -72.14472 | 41301 ft | 375 kts | 199° |
| 2026-04-25 20:55 | -37.99919 | -72.15735 | 41312 ft | 375 kts | 199° |
| 2026-04-25 20:55 | -38.05059 | -72.17003 | 41307 ft | 375 kts | 199° |
| 2026-04-25 20:56 | -38.10173 | -72.18266 | 41313 ft | 375 kts | 199° |
| 2026-04-25 20:56 | -38.15297 | -72.19535 | 41315 ft | 375 kts | 199° |
| 2026-04-25 20:57 | -38.20440 | -72.20809 | 41315 ft | 376 kts | 199° |
| 2026-04-25 20:57 | -38.25541 | -72.22074 | 41313 ft | 376 kts | 199° |
| 2026-04-25 20:58 | -38.30685 | -72.23352 | 41310 ft | 376 kts | 199° |
| 2026-04-25 20:58 | -38.35829 | -72.24633 | 41310 ft | 376 kts | 199° |
| 2026-04-25 20:59 | -38.40940 | -72.25907 | 41312 ft | 376 kts | 199° |
| 2026-04-25 20:59 | -38.46081 | -72.27189 | 41315 ft | 376 kts | 199° |
| 2026-04-25 21:00 | -38.50359 | -72.28259 | 41313 ft | 376 kts | 199° |
| 2026-04-25 21:01 | -38.58917 | -72.30402 | 41311 ft | 376 kts | 199° |
| 2026-04-25 21:01 | -38.64053 | -72.31688 | 41310 ft | 376 kts | 199° |
| 2026-04-25 21:02 | -38.69179 | -72.32976 | 41304 ft | 376 kts | 199° |
| 2026-04-25 21:02 | -38.74318 | -72.34270 | 41298 ft | 376 kts | 199° |
| 2026-04-25 21:03 | -38.79441 | -72.35560 | 41303 ft | 376 kts | 199° |
| 2026-04-25 21:03 | -38.84549 | -72.36850 | 41306 ft | 375 kts | 199° |
| 2026-04-25 21:04 | -38.89702 | -72.38151 | 41298 ft | 375 kts | 199° |
| 2026-04-25 21:04 | -38.94804 | -72.39442 | 41297 ft | 375 kts | 199° |
| 2026-04-25 21:05 | -38.99919 | -72.40739 | 41299 ft | 375 kts | 198° |
| 2026-04-25 21:05 | -39.05044 | -72.42038 | 41300 ft | 375 kts | 198° |
| 2026-04-25 21:06 | -39.10171 | -72.43343 | 41296 ft | 375 kts | 198° |
| 2026-04-25 21:06 | -39.15298 | -72.44647 | 41291 ft | 375 kts | 198° |
| 2026-04-25 21:07 | -39.20414 | -72.45951 | 41296 ft | 374 kts | 198° |
| 2026-04-25 21:07 | -39.25526 | -72.47257 | 41287 ft | 375 kts | 198° |
| 2026-04-25 21:08 | -39.30614 | -72.48557 | 41289 ft | 374 kts | 198° |
| 2026-04-25 21:08 | -39.35724 | -72.49866 | 41286 ft | 374 kts | 198° |
| 2026-04-25 21:09 | -39.43381 | -72.51830 | 41280 ft | 373 kts | 198° |
| 2026-04-25 21:09 | -39.48526 | -72.53158 | 40820 ft | 385 kts | 198° |
| 2026-04-25 21:10 | -39.51182 | -72.53845 | 40310 ft | 393 kts | 198° |
| 2026-04-25 21:10 | -39.53863 | -72.54530 | 39793 ft | 398 kts | 198° |
| 2026-04-25 21:10 | -39.56561 | -72.55219 | 39271 ft | 393 kts | 198° |
| 2026-04-25 21:10 | -39.59228 | -72.55902 | 38707 ft | 386 kts | 198° |
| 2026-04-25 21:11 | -39.61831 | -72.56576 | 38188 ft | 377 kts | 198° |
| 2026-04-25 21:11 | -39.64399 | -72.57243 | 37688 ft | 369 kts | 198° |
| 2026-04-25 21:11 | -39.66890 | -72.57885 | 37204 ft | 362 kts | 198° |
| 2026-04-25 21:11 | -39.69327 | -72.58517 | 36732 ft | 358 kts | 198° |
| 2026-04-25 21:12 | -39.71764 | -72.59150 | 36262 ft | 354 kts | 198° |
| 2026-04-25 21:12 | -39.74167 | -72.59771 | 35790 ft | 350 kts | 197° |
| 2026-04-25 21:12 | -39.76556 | -72.60390 | 35329 ft | 347 kts | 197° |
| 2026-04-25 21:12 | -39.78106 | -72.60794 | 35026 ft | 346 kts | 197° |
| 2026-04-25 21:13 | -39.81248 | -72.61609 | 34420 ft | 342 kts | 196° |
| 2026-04-25 21:13 | -39.83554 | -72.62209 | 33929 ft | 340 kts | 196° |
| 2026-04-25 21:13 | -39.85907 | -72.62821 | 33471 ft | 342 kts | 197° |
| 2026-04-25 21:13 | -39.88247 | -72.63431 | 33016 ft | 343 kts | 197° |
| 2026-04-25 21:14 | -39.90586 | -72.64041 | 32560 ft | 345 kts | 197° |
| 2026-04-25 21:14 | -39.92945 | -72.64653 | 32105 ft | 347 kts | 197° |
| 2026-04-25 21:14 | -39.95308 | -72.65273 | 31644 ft | 351 kts | 197° |
| 2026-04-25 21:14 | -39.97708 | -72.65895 | 31182 ft | 353 kts | 197° |
| 2026-04-25 21:15 | -40.00151 | -72.66535 | 30701 ft | 355 kts | 197° |
| 2026-04-25 21:15 | -40.02556 | -72.67162 | 30220 ft | 357 kts | 197° |
| 2026-04-25 21:15 | -40.04999 | -72.67801 | 29725 ft | 357 kts | 197° |
| 2026-04-25 21:15 | -40.07435 | -72.68439 | 29249 ft | 358 kts | 197° |
| 2026-04-25 21:16 | -40.09885 | -72.69078 | 28768 ft | 358 kts | 197° |
| 2026-04-25 21:16 | -40.12347 | -72.69726 | 28292 ft | 359 kts | 197° |
| 2026-04-25 21:16 | -40.14783 | -72.70363 | 27818 ft | 360 kts | 197° |
| 2026-04-25 21:16 | -40.17210 | -72.70997 | 27341 ft | 354 kts | 197° |
| 2026-04-25 21:17 | -40.19623 | -72.71631 | 26872 ft | 348 kts | 197° |
| 2026-04-25 21:17 | -40.21979 | -72.72249 | 26413 ft | 345 kts | 197° |
| 2026-04-25 21:17 | -40.24313 | -72.72868 | 25962 ft | 342 kts | 197° |
| 2026-04-25 21:17 | -40.26651 | -72.73481 | 25505 ft | 340 kts | 197° |
| 2026-04-25 21:18 | -40.28953 | -72.74089 | 25060 ft | 341 kts | 197° |
| 2026-04-25 21:18 | -40.31300 | -72.74708 | 24604 ft | 342 kts | 197° |
| 2026-04-25 21:18 | -40.33614 | -72.75319 | 24156 ft | 343 kts | 197° |
| 2026-04-25 21:18 | -40.35973 | -72.75941 | 23677 ft | 345 kts | 197° |
| 2026-04-25 21:19 | -40.38333 | -72.76563 | 23196 ft | 345 kts | 197° |
| 2026-04-25 21:19 | -40.40651 | -72.77174 | 22744 ft | 340 kts | 197° |
| 2026-04-25 21:19 | -40.42975 | -72.77787 | 22296 ft | 337 kts | 197° |
| 2026-04-25 21:19 | -40.45264 | -72.78396 | 21851 ft | 334 kts | 198° |
| 2026-04-25 21:20 | -40.47544 | -72.78998 | 21411 ft | 332 kts | 198° |
| 2026-04-25 21:20 | -40.48276 | -72.79193 | 21262 ft | 331 kts | 198° |
| 2026-04-25 21:20 | -40.52025 | -72.80186 | 20535 ft | 328 kts | 198° |
| 2026-04-25 21:20 | -40.54273 | -72.80785 | 20101 ft | 327 kts | 198° |
| 2026-04-25 21:21 | -40.56474 | -72.81369 | 19674 ft | 326 kts | 198° |
| 2026-04-25 21:21 | -40.58706 | -72.81961 | 19235 ft | 324 kts | 198° |
| 2026-04-25 21:21 | -40.60916 | -72.82550 | 18808 ft | 321 kts | 198° |
| 2026-04-25 21:21 | -40.63075 | -72.83120 | 18366 ft | 316 kts | 198° |
| 2026-04-25 21:22 | -40.65231 | -72.83698 | 17936 ft | 312 kts | 198° |
| 2026-04-25 21:22 | -40.67330 | -72.84256 | 17528 ft | 308 kts | 198° |
| 2026-04-25 21:22 | -40.69430 | -72.84816 | 17119 ft | 306 kts | 198° |
| 2026-04-25 21:22 | -40.71513 | -72.85375 | 16718 ft | 304 kts | 198° |
| 2026-04-25 21:23 | -40.73595 | -72.85928 | 16309 ft | 304 kts | 197° |
| 2026-04-25 21:23 | -40.75654 | -72.86482 | 15917 ft | 305 kts | 197° |
| 2026-04-25 21:23 | -40.77742 | -72.87037 | 15507 ft | 306 kts | 197° |
| 2026-04-25 21:23 | -40.79841 | -72.87600 | 15105 ft | 307 kts | 197° |
| 2026-04-25 21:24 | -40.81925 | -72.88158 | 14701 ft | 309 kts | 197° |
| 2026-04-25 21:24 | -40.84039 | -72.88724 | 14289 ft | 311 kts | 197° |
| 2026-04-25 21:24 | -40.86175 | -72.89297 | 13857 ft | 313 kts | 197° |
| 2026-04-25 21:24 | -40.88289 | -72.89863 | 13434 ft | 314 kts | 196° |
| 2026-04-25 21:25 | -40.90443 | -72.90443 | 13017 ft | 315 kts | 196° |
| 2026-04-25 21:25 | -40.92600 | -72.91018 | 12601 ft | 316 kts | 196° |
| 2026-04-25 21:25 | -40.94749 | -72.91587 | 12176 ft | 318 kts | 194° |
| 2026-04-25 21:25 | -40.96972 | -72.91870 | 11755 ft | 321 kts | 190° |
| 2026-04-25 21:26 | -40.99201 | -72.92134 | 11330 ft | 321 kts | 191° |
| 2026-04-25 21:26 | -41.01382 | -72.92404 | 10912 ft | 310 kts | 191° |
| 2026-04-25 21:26 | -41.03477 | -72.92664 | 10513 ft | 295 kts | 191° |
| 2026-04-25 21:26 | -41.05487 | -72.92917 | 10124 ft | 282 kts | 191° |
| 2026-04-25 21:27 | -41.07404 | -72.93153 | 9600 ft | 271 kts | 191° |
| 2026-04-25 21:27 | -41.09220 | -72.93382 | 9205 ft | 260 kts | 192° |
| 2026-04-25 21:27 | -41.11011 | -72.93603 | 8855 ft | 256 kts | 192° |
| 2026-04-25 21:27 | -41.12797 | -72.93834 | 8513 ft | 257 kts | 192° |
| 2026-04-25 21:28 | -41.14569 | -72.94050 | 8173 ft | 258 kts | 192° |
| 2026-04-25 21:28 | -41.16363 | -72.94277 | 7828 ft | 258 kts | 192° |
| 2026-04-25 21:28 | -41.18144 | -72.94494 | 7490 ft | 254 kts | 192° |
| 2026-04-25 21:28 | -41.19873 | -72.94711 | 7157 ft | 251 kts | 192° |
| 2026-04-25 21:29 | -41.21606 | -72.94928 | 6825 ft | 248 kts | 192° |
| 2026-04-25 21:29 | -41.23332 | -72.95143 | 6502 ft | 247 kts | 192° |
| 2026-04-25 21:29 | -41.25049 | -72.95361 | 6166 ft | 247 kts | 192° |
| 2026-04-25 21:29 | -41.26732 | -72.95533 | 6026 ft | 242 kts | 188° |
| 2026-04-25 21:30 | -41.28397 | -72.95556 | 6001 ft | 237 kts | 189° |
| 2026-04-25 21:30 | -41.30058 | -72.95631 | 6004 ft | 240 kts | 189° |
| 2026-04-25 21:30 | -41.31736 | -72.95693 | 5996 ft | 242 kts | 189° |
| 2026-04-25 21:30 | -41.32862 | -72.95733 | 6000 ft | 244 kts | 188° |
| 2026-04-25 21:31 | -41.34554 | -72.95782 | 5993 ft | 244 kts | 188° |
| 2026-04-25 21:31 | -41.36261 | -72.95840 | 6002 ft | 245 kts | 188° |
| 2026-04-25 21:31 | -41.38533 | -72.95920 | 5996 ft | 247 kts | 188° |
| 2026-04-25 21:31 | -41.40258 | -72.95972 | 6002 ft | 247 kts | 188° |
| 2026-04-25 21:32 | -41.41401 | -72.96014 | 6002 ft | 247 kts | 188° |
| 2026-04-25 21:32 | -41.43133 | -72.96067 | 5995 ft | 248 kts | 188° |
| 2026-04-25 21:32 | -41.44835 | -72.96129 | 5997 ft | 249 kts | 188° |
| 2026-04-25 21:32 | -41.46576 | -72.96183 | 5994 ft | 249 kts | 188° |
| 2026-04-25 21:33 | -41.48882 | -72.96263 | 5872 ft | 253 kts | 187° |
| 2026-04-25 21:33 | -41.50086 | -72.96302 | 5720 ft | 256 kts | 188° |
| 2026-04-25 21:33 | -41.51830 | -72.96361 | 5470 ft | 246 kts | 187° |
| 2026-04-25 21:33 | -41.53501 | -72.96410 | 5232 ft | 238 kts | 188° |
| 2026-04-25 21:34 | -41.55170 | -72.96474 | 4989 ft | 242 kts | 187° |
| 2026-04-25 21:34 | -41.56862 | -72.96532 | 4731 ft | 244 kts | 187° |
| 2026-04-25 21:34 | -41.58498 | -72.96805 | 4477 ft | 228 kts | 203° |
| 2026-04-25 21:34 | -41.59860 | -72.97732 | 4243 ft | 218 kts | 217° |
| 2026-04-25 21:35 | -41.60911 | -72.99152 | 4019 ft | 212 kts | 233° |
| 2026-04-25 21:35 | -41.61579 | -73.00889 | 3806 ft | 210 kts | 249° |
| 2026-04-25 21:35 | -41.61817 | -73.02774 | 3601 ft | 204 kts | 263° |
| 2026-04-25 21:35 | -41.61763 | -73.04642 | 3413 ft | 197 kts | 264° |
| 2026-04-25 21:36 | -41.61660 | -73.06424 | 3224 ft | 197 kts | 277° |
| 2026-04-25 21:36 | -41.61043 | -73.08087 | 3019 ft | 203 kts | 296° |
| 2026-04-25 21:36 | -41.59961 | -73.09324 | 2821 ft | 206 kts | 320° |
| 2026-04-25 21:36 | -41.58615 | -73.09888 | 2635 ft | 210 kts | 344° |
| 2026-04-25 21:37 | -41.57090 | -73.09881 | 2428 ft | 224 kts | 354° |
| 2026-04-25 21:37 | -41.56042 | -73.09842 | 2281 ft | 230 kts | 354° |
| 2026-04-25 21:37 | -41.53885 | -73.09755 | 1984 ft | 232 kts | 355° |
| 2026-04-25 21:37 | -41.52328 | -73.09686 | 1794 ft | 218 kts | 355° |
| 2026-04-25 21:38 | -41.50925 | -73.09625 | 1513 ft | 181 kts | 353° |
| 2026-04-25 21:38 | -41.49777 | -73.09588 | 1279 ft | 151 kts | 352° |
| 2026-04-25 21:38 | -41.48788 | -73.09563 | 1041 ft | 134 kts | 355° |
| 2026-04-25 21:38 | -41.47912 | -73.09534 | 886 ft | 121 kts | 355° |
| 2026-04-25 21:39 | -41.47110 | -73.09516 | 715 ft | 114 kts | 354° |
| 2026-04-25 21:39 | -41.46290 | -73.09470 | 578 ft | 122 kts | 359° |
| 2026-04-25 21:39 | -41.45438 | -73.09457 | 421 ft | 124 kts | 360° |
| 2026-04-25 21:39 | -41.44631 | -73.09421 | 291 ft | 109 kts | 358° |
| 2026-04-25 21:40 | -41.44086 | -73.09402 | 283 ft | 35 kts | 2° |
| 2026-04-25 21:40 | -41.43864 | -73.09395 | 281 ft | 24 kts | 1° |
| 2026-04-25 21:40 | -41.43737 | -73.09394 | 280 ft | 13 kts | 346° |
| 2026-04-25 21:40 | -41.43721 | -73.09444 | 280 ft | 8 kts | 266° |
| 2026-04-25 21:41 | -41.43719 | -73.09515 | 280 ft | 7 kts | 272° |
| 2026-04-25 21:41 | -41.43716 | -73.09581 | 279 ft | 7 kts | 291° |
| 2026-04-25 21:41 | -41.43685 | -73.09610 | 279 ft | 2 kts | 0° |
| 2026-04-25 21:41 | -41.43669 | -73.09610 | 279 ft | 2 kts | 358° |
| 2026-04-25 21:42 | -41.43644 | -73.09611 | 278 ft | 6 kts | 358° |
| 2026-04-25 21:42 | -41.43589 | -73.09609 | 277 ft | 8 kts | 0° |
| 2026-04-25 21:42 | -41.43531 | -73.09614 | 277 ft | 8 kts | 331° |
| 2026-04-25 21:42 | -41.43525 | -73.09635 | 277 ft | 0 kts | 234° |
| 2026-04-25 21:43 | -41.43542 | -73.09658 | 277 ft | 3 kts | 226° |
| 2026-04-25 21:43 | -41.43547 | -73.09664 | 277 ft | 0 kts | 226° |